sensor_id;sensor_type;location;lat;lon;timestamp;P1;durP1;ratioP1;P2;durP2;ratioP2
52516;SDS011;59374;53.210;5.726;2022-08-21T10:05:21;6.72;;;2.20;;
52516;SDS011;59374;53.210;5.726;2022-08-21T10:10:13;4.78;;;2.50;;
52516;SDS011;59374;53.210;5.726;2022-08-21T10:18:41;5.47;;;2.03;;
52516;SDS011;59374;53.210;5.726;2022-08-21T10:24:05;4.32;;;1.77;;
52516;SDS011;59374;53.210;5.726;2022-08-21T10:29:47;5.65;;;2.30;;
52516;SDS011;59374;53.210;5.726;2022-08-21T10:43:42;6.50;;;2.00;;
52516;SDS011;59374;53.210;5.726;2022-08-21T10:46:37;5.30;;;1.95;;
52516;SDS011;59374;53.210;5.726;2022-08-21T10:49:23;6.35;;;2.10;;
52516;SDS011;59374;53.210;5.726;2022-08-21T10:52:20;7.55;;;2.17;;
52516;SDS011;59374;53.210;5.726;2022-08-21T10:55:10;5.15;;;2.40;;
52516;SDS011;59374;53.210;5.726;2022-08-21T11:00:13;7.00;;;2.25;;
52516;SDS011;59374;53.210;5.726;2022-08-21T11:05:34;6.40;;;2.40;;
52516;SDS011;59374;53.210;5.726;2022-08-21T11:08:14;6.95;;;1.77;;
52516;SDS011;59374;53.210;5.726;2022-08-21T11:10:46;5.85;;;1.98;;
52516;SDS011;59374;53.210;5.726;2022-08-21T11:19:02;5.85;;;1.90;;
52516;SDS011;59374;53.210;5.726;2022-08-21T11:21:42;8.25;;;2.30;;
52516;SDS011;59374;53.210;5.726;2022-08-21T11:24:30;5.40;;;2.10;;
52516;SDS011;59374;53.210;5.726;2022-08-21T11:30:01;7.22;;;2.22;;
52516;SDS011;59374;53.210;5.726;2022-08-21T11:38:07;5.93;;;2.28;;
52516;SDS011;59374;53.210;5.726;2022-08-21T11:41:19;5.70;;;2.25;;
52516;SDS011;59374;53.210;5.726;2022-08-21T11:44:00;8.57;;;2.08;;
52516;SDS011;59374;53.210;5.726;2022-08-21T11:46:44;6.30;;;2.22;;
52516;SDS011;59374;53.210;5.726;2022-08-21T11:49:34;5.70;;;2.50;;
52516;SDS011;59374;53.210;5.726;2022-08-21T11:52:29;5.45;;;1.90;;
52516;SDS011;59374;53.210;5.726;2022-08-21T11:55:12;6.00;;;2.30;;
52516;SDS011;59374;53.210;5.726;2022-08-21T11:57:57;6.40;;;1.90;;
52516;SDS011;59374;53.210;5.726;2022-08-21T12:00:29;6.07;;;2.30;;
52516;SDS011;59374;53.210;5.726;2022-08-21T12:03:06;4.97;;;2.08;;
52516;SDS011;59374;53.210;5.726;2022-08-21T12:05:39;6.78;;;2.03;;
52516;SDS011;59374;53.210;5.726;2022-08-21T12:10:38;5.78;;;2.08;;
52516;SDS011;59374;53.210;5.726;2022-08-21T12:13:08;4.80;;;1.85;;
52516;SDS011;59374;53.210;5.726;2022-08-21T12:15:37;5.05;;;2.22;;
52516;SDS011;59374;53.210;5.726;2022-08-21T12:18:18;4.95;;;2.03;;
52516;SDS011;59374;53.210;5.726;2022-08-21T12:24:33;4.63;;;2.30;;
52516;SDS011;59374;53.210;5.726;2022-08-21T12:26:57;5.30;;;2.20;;
52516;SDS011;59374;53.210;5.726;2022-08-21T12:29:27;5.68;;;2.22;;
52516;SDS011;59374;53.210;5.726;2022-08-21T12:32:42;6.32;;;2.28;;
52516;SDS011;59374;53.210;5.726;2022-08-21T12:34:49;5.78;;;2.08;;
52516;SDS011;59374;53.210;5.726;2022-08-21T12:37:25;4.88;;;2.05;;
52516;SDS011;59374;53.210;5.726;2022-08-21T12:39:59;4.70;;;1.77;;
52516;SDS011;59374;53.210;5.726;2022-08-21T12:42:31;7.13;;;2.00;;
52516;SDS011;59374;53.210;5.726;2022-08-21T12:45:06;4.95;;;2.15;;
52516;SDS011;59374;53.210;5.726;2022-08-21T12:47:51;5.45;;;1.88;;
52516;SDS011;59374;53.210;5.726;2022-08-21T12:50:29;4.47;;;1.90;;
52516;SDS011;59374;53.210;5.726;2022-08-21T12:53:04;6.15;;;2.05;;
52516;SDS011;59374;53.210;5.726;2022-08-21T12:55:32;6.10;;;2.25;;
52516;SDS011;59374;53.210;5.726;2022-08-21T12:57:58;7.32;;;2.30;;
52516;SDS011;59374;53.210;5.726;2022-08-21T13:00:26;5.90;;;2.08;;
52516;SDS011;59374;53.210;5.726;2022-08-21T13:02:53;5.13;;;1.95;;
52516;SDS011;59374;53.210;5.726;2022-08-21T13:05:39;7.82;;;2.15;;
52516;SDS011;59374;53.210;5.726;2022-08-21T13:08:05;5.25;;;1.92;;
52516;SDS011;59374;53.210;5.726;2022-08-21T13:10:34;5.65;;;2.17;;
52516;SDS011;59374;53.210;5.726;2022-08-21T13:13:03;8.70;;;2.35;;
52516;SDS011;59374;53.210;5.726;2022-08-21T13:15:33;7.10;;;2.22;;
52516;SDS011;59374;53.210;5.726;2022-08-21T13:18:01;4.40;;;1.90;;
52516;SDS011;59374;53.210;5.726;2022-08-21T13:20:30;6.03;;;1.77;;
52516;SDS011;59374;53.210;5.726;2022-08-21T13:23:00;4.75;;;2.20;;
52516;SDS011;59374;53.210;5.726;2022-08-21T13:25:28;6.32;;;1.98;;
52516;SDS011;59374;53.210;5.726;2022-08-21T13:28:07;6.78;;;2.55;;
52516;SDS011;59374;53.210;5.726;2022-08-21T13:30:39;6.18;;;2.13;;
52516;SDS011;59374;53.210;5.726;2022-08-21T13:33:10;7.75;;;2.30;;
52516;SDS011;59374;53.210;5.726;2022-08-21T13:35:48;6.60;;;2.10;;
52516;SDS011;59374;53.210;5.726;2022-08-21T13:38:20;5.70;;;2.15;;
52516;SDS011;59374;53.210;5.726;2022-08-21T13:41:12;5.32;;;1.95;;
52516;SDS011;59374;53.210;5.726;2022-08-21T13:43:44;6.18;;;2.17;;
52516;SDS011;59374;53.210;5.726;2022-08-21T13:46:12;5.47;;;2.03;;
52516;SDS011;59374;53.210;5.726;2022-08-21T13:48:39;5.93;;;2.33;;
52516;SDS011;59374;53.210;5.726;2022-08-21T13:51:06;11.40;;;2.85;;
52516;SDS011;59374;53.210;5.726;2022-08-21T13:53:35;5.38;;;1.75;;
52516;SDS011;59374;53.210;5.726;2022-08-21T13:58:51;3.75;;;1.80;;
52516;SDS011;59374;53.210;5.726;2022-08-21T14:04:23;6.22;;;2.13;;
52516;SDS011;59374;53.210;5.726;2022-08-21T14:06:48;6.75;;;2.33;;
52516;SDS011;59374;53.210;5.726;2022-08-21T14:11:46;10.73;;;2.40;;
52516;SDS011;59374;53.210;5.726;2022-08-21T14:16:56;8.27;;;2.45;;
52516;SDS011;59374;53.210;5.726;2022-08-21T14:19:44;6.15;;;2.10;;
52516;SDS011;59374;53.210;5.726;2022-08-21T14:25:27;5.93;;;2.00;;
52516;SDS011;59374;53.210;5.726;2022-08-21T14:28:24;6.97;;;2.03;;
52516;SDS011;59374;53.210;5.726;2022-08-21T14:30:57;5.55;;;2.10;;
52516;SDS011;59374;53.210;5.726;2022-08-21T14:33:35;6.47;;;1.90;;
52516;SDS011;59374;53.210;5.726;2022-08-21T14:36:00;5.20;;;2.00;;
52516;SDS011;59374;53.210;5.726;2022-08-21T14:38:27;5.40;;;1.90;;
52516;SDS011;59374;53.210;5.726;2022-08-21T14:40:57;8.02;;;2.20;;
52516;SDS011;59374;53.210;5.726;2022-08-21T14:43:28;6.03;;;1.95;;
52516;SDS011;59374;53.210;5.726;2022-08-21T14:45:54;6.03;;;2.08;;
52516;SDS011;59374;53.210;5.726;2022-08-21T14:48:20;9.68;;;2.40;;
52516;SDS011;59374;53.210;5.726;2022-08-21T14:50:46;8.55;;;2.05;;
52516;SDS011;59374;53.210;5.726;2022-08-21T14:53:12;7.45;;;2.50;;
52516;SDS011;59374;53.210;5.726;2022-08-21T14:55:38;4.65;;;2.25;;
52516;SDS011;59374;53.210;5.726;2022-08-21T14:58:23;4.67;;;2.00;;
52516;SDS011;59374;53.210;5.726;2022-08-21T15:00:50;6.30;;;2.35;;
52516;SDS011;59374;53.210;5.726;2022-08-21T15:03:17;6.38;;;2.63;;
52516;SDS011;59374;53.210;5.726;2022-08-21T15:05:44;10.50;;;2.45;;
52516;SDS011;59374;53.210;5.726;2022-08-21T15:08:09;5.32;;;2.17;;
52516;SDS011;59374;53.210;5.726;2022-08-21T15:10:35;6.68;;;2.50;;
52516;SDS011;59374;53.210;5.726;2022-08-21T15:13:01;6.75;;;2.53;;
52516;SDS011;59374;53.210;5.726;2022-08-21T15:15:28;12.10;;;2.67;;
52516;SDS011;59374;53.210;5.726;2022-08-21T15:18:15;6.78;;;2.40;;
52516;SDS011;59374;53.210;5.726;2022-08-21T15:20:40;6.97;;;2.50;;
52516;SDS011;59374;53.210;5.726;2022-08-21T15:23:07;4.35;;;2.40;;
52516;SDS011;59374;53.210;5.726;2022-08-21T15:25:34;6.35;;;2.17;;
52516;SDS011;59374;53.210;5.726;2022-08-21T15:28:00;6.20;;;2.25;;
52516;SDS011;59374;53.210;5.726;2022-08-21T15:30:27;5.47;;;2.30;;
52516;SDS011;59374;53.210;5.726;2022-08-21T15:32:55;5.07;;;2.58;;
52516;SDS011;59374;53.210;5.726;2022-08-21T15:35:21;7.68;;;2.35;;
52516;SDS011;59374;53.210;5.726;2022-08-21T15:37:46;8.60;;;2.40;;
52516;SDS011;59374;53.210;5.726;2022-08-21T15:40:12;8.18;;;2.33;;
52516;SDS011;59374;53.210;5.726;2022-08-21T15:42:39;9.07;;;2.67;;
52516;SDS011;59374;53.210;5.726;2022-08-21T15:45:05;6.88;;;1.98;;
52516;SDS011;59374;53.210;5.726;2022-08-21T15:47:32;8.07;;;2.47;;
52516;SDS011;59374;53.210;5.726;2022-08-21T15:50:06;7.38;;;2.40;;
52516;SDS011;59374;53.210;5.726;2022-08-21T15:52:33;6.35;;;2.45;;
52516;SDS011;59374;53.210;5.726;2022-08-21T15:54:59;6.22;;;2.40;;
52516;SDS011;59374;53.210;5.726;2022-08-21T15:57:25;8.35;;;2.72;;
52516;SDS011;59374;53.210;5.726;2022-08-21T16:06:58;7.97;;;2.60;;
52516;SDS011;59374;53.210;5.726;2022-08-21T16:09:23;8.13;;;2.60;;
52516;SDS011;59374;53.210;5.726;2022-08-21T16:11:49;5.72;;;2.70;;
52516;SDS011;59374;53.210;5.726;2022-08-21T16:14:16;6.30;;;2.72;;
52516;SDS011;59374;53.210;5.726;2022-08-21T16:16:42;6.38;;;2.45;;
52516;SDS011;59374;53.210;5.726;2022-08-21T16:19:08;8.18;;;2.95;;
52516;SDS011;59374;53.210;5.726;2022-08-21T16:21:35;8.95;;;2.90;;
52516;SDS011;59374;53.210;5.726;2022-08-21T16:24:01;8.07;;;2.53;;
52516;SDS011;59374;53.210;5.726;2022-08-21T16:26:27;7.35;;;2.90;;
52516;SDS011;59374;53.210;5.726;2022-08-21T16:28:54;7.60;;;2.95;;
52516;SDS011;59374;53.210;5.726;2022-08-21T16:31:22;8.48;;;2.95;;
52516;SDS011;59374;53.210;5.726;2022-08-21T16:33:50;7.88;;;2.97;;
52516;SDS011;59374;53.210;5.726;2022-08-21T16:36:18;8.45;;;2.88;;
52516;SDS011;59374;53.210;5.726;2022-08-21T16:38:44;9.05;;;3.08;;
52516;SDS011;59374;53.210;5.726;2022-08-21T16:41:13;6.80;;;2.60;;
52516;SDS011;59374;53.210;5.726;2022-08-21T16:43:42;7.57;;;2.80;;
52516;SDS011;59374;53.210;5.726;2022-08-21T16:46:09;7.53;;;2.60;;
52516;SDS011;59374;53.210;5.726;2022-08-21T16:48:37;9.73;;;2.80;;
52516;SDS011;59374;53.210;5.726;2022-08-21T16:51:03;6.90;;;2.28;;
52516;SDS011;59374;53.210;5.726;2022-08-21T16:53:29;6.88;;;2.58;;
52516;SDS011;59374;53.210;5.726;2022-08-21T16:55:55;6.90;;;2.80;;
52516;SDS011;59374;53.210;5.726;2022-08-21T17:00:47;6.47;;;2.88;;
52516;SDS011;59374;53.210;5.726;2022-08-21T17:03:13;7.28;;;2.80;;
52516;SDS011;59374;53.210;5.726;2022-08-21T17:08:26;9.15;;;2.67;;
52516;SDS011;59374;53.210;5.726;2022-08-21T17:10:52;6.95;;;2.90;;
52516;SDS011;59374;53.210;5.726;2022-08-21T17:13:19;6.25;;;3.08;;
52516;SDS011;59374;53.210;5.726;2022-08-21T17:15:44;6.70;;;2.65;;
52516;SDS011;59374;53.210;5.726;2022-08-21T17:18:12;10.48;;;2.80;;
52516;SDS011;59374;53.210;5.726;2022-08-21T17:20:40;7.72;;;2.95;;
52516;SDS011;59374;53.210;5.726;2022-08-21T17:23:06;6.90;;;2.50;;
52516;SDS011;59374;53.210;5.726;2022-08-21T17:25:33;7.88;;;3.03;;
52516;SDS011;59374;53.210;5.726;2022-08-21T17:28:03;10.32;;;3.05;;
52516;SDS011;59374;53.210;5.726;2022-08-21T17:30:49;9.07;;;3.42;;
52516;SDS011;59374;53.210;5.726;2022-08-21T17:33:19;8.35;;;3.00;;
52516;SDS011;59374;53.210;5.726;2022-08-21T17:39:04;7.70;;;3.30;;
52516;SDS011;59374;53.210;5.726;2022-08-21T17:41:40;9.75;;;3.22;;
52516;SDS011;59374;53.210;5.726;2022-08-21T17:44:08;9.30;;;3.03;;
52516;SDS011;59374;53.210;5.726;2022-08-21T17:46:38;10.05;;;2.80;;
52516;SDS011;59374;53.210;5.726;2022-08-21T17:49:05;6.20;;;2.53;;
52516;SDS011;59374;53.210;5.726;2022-08-21T17:51:42;7.97;;;2.95;;
52516;SDS011;59374;53.210;5.726;2022-08-21T17:54:09;8.35;;;3.28;;
52516;SDS011;59374;53.210;5.726;2022-08-21T17:56:36;8.75;;;2.80;;
52516;SDS011;59374;53.210;5.726;2022-08-21T17:59:09;8.35;;;2.95;;
52516;SDS011;59374;53.210;5.726;2022-08-21T18:01:38;8.70;;;3.15;;
52516;SDS011;59374;53.210;5.726;2022-08-21T18:04:17;7.95;;;3.03;;
52516;SDS011;59374;53.210;5.726;2022-08-21T18:06:55;8.55;;;2.53;;
52516;SDS011;59374;53.210;5.726;2022-08-21T18:09:22;10.15;;;3.13;;
52516;SDS011;59374;53.210;5.726;2022-08-21T18:11:56;10.18;;;3.40;;
52516;SDS011;59374;53.210;5.726;2022-08-21T18:17:28;9.23;;;3.00;;
52516;SDS011;59374;53.210;5.726;2022-08-21T18:23:14;9.20;;;2.97;;
